createdAt,value
2023-01-20T00:02:11.286Z,2.44
2023-01-20T00:07:14.106Z,2.46
2023-01-20T00:12:16.696Z,2.53
2023-01-20T00:17:19.175Z,2.44
2023-01-20T00:22:22.497Z,2.46
2023-01-20T00:27:25.118Z,2.50
2023-01-20T00:32:27.808Z,2.45
2023-01-20T00:37:30.326Z,2.54
2023-01-20T00:42:32.918Z,2.25
2023-01-20T00:47:35.675Z,2.59
2023-01-20T00:52:38.227Z,2.64
2023-01-20T00:57:41.014Z,2.65
2023-01-20T01:02:43.553Z,2.57
2023-01-20T01:07:46.148Z,2.62
2023-01-20T01:12:48.661Z,2.65
2023-01-20T01:17:52.451Z,2.75
2023-01-20T01:22:56.306Z,2.74
2023-01-20T01:27:58.837Z,2.72
2023-01-20T01:33:01.547Z,2.71
2023-01-20T01:38:04.095Z,2.62
2023-01-20T01:43:23.372Z,2.75
2023-01-20T01:48:40.341Z,2.75
2023-01-20T01:53:54.033Z,2.74
2023-01-20T01:59:00.143Z,2.68
2023-01-20T02:04:11.531Z,2.69
2023-01-20T02:09:14.489Z,2.51
2023-01-20T02:14:19.382Z,2.73
2023-01-20T02:19:37.031Z,2.76
2023-01-20T02:25:13.443Z,2.68
2023-01-20T02:30:25.157Z,2.74
2023-01-20T02:35:45.991Z,2.80
2023-01-20T02:40:48.473Z,2.87
2023-01-20T02:46:06.306Z,2.85
2023-01-20T02:51:18.356Z,2.77
2023-01-20T02:56:37.180Z,2.91
2023-01-20T03:02:02.680Z,2.93
2023-01-20T03:07:07.318Z,2.78
2023-01-20T03:12:17.048Z,2.93
2023-01-20T03:17:20.840Z,2.82
2023-01-20T03:22:23.721Z,2.82
2023-01-20T03:27:26.918Z,2.84
2023-01-20T03:32:30.036Z,2.82
2023-01-20T03:37:32.698Z,2.81
2023-01-20T03:42:46.282Z,2.83
2023-01-20T03:47:58.748Z,3.03
2023-01-20T03:53:15.396Z,2.99
2023-01-20T03:58:40.962Z,3.00
2023-01-20T04:03:46.168Z,2.97
2023-01-20T04:08:57.068Z,3.00
2023-01-20T04:14:00.045Z,2.90
2023-01-20T04:19:02.797Z,3.03
2023-01-20T04:24:34.800Z,2.96
2023-01-20T04:29:37.509Z,3.05
2023-01-20T04:34:40.258Z,3.01
2023-01-20T04:39:43.038Z,2.96
2023-01-20T04:44:46.313Z,2.94
2023-01-20T04:49:49.003Z,3.03
2023-01-20T04:54:51.588Z,3.05
2023-01-20T04:59:54.141Z,3.13
2023-01-20T05:04:56.771Z,3.03
2023-01-20T05:09:59.437Z,3.05
2023-01-20T05:15:02.201Z,3.15
2023-01-20T05:20:05.979Z,2.97
2023-01-20T05:25:09.177Z,3.10
2023-01-20T05:30:12.090Z,3.09
2023-01-20T05:35:14.995Z,3.11
2023-01-20T05:40:18.461Z,3.10
2023-01-20T05:45:21.031Z,3.14
2023-01-20T05:50:24.262Z,3.12
2023-01-20T05:55:27.185Z,3.10
2023-01-20T06:00:30.429Z,3.21
2023-01-20T06:05:33.497Z,3.20
2023-01-20T06:10:36.055Z,3.19
2023-01-20T06:15:38.598Z,3.20
2023-01-20T06:20:41.170Z,3.24
2023-01-20T06:25:44.111Z,3.24
2023-01-20T06:30:46.648Z,3.20
2023-01-20T06:35:49.359Z,3.40
2023-01-20T06:40:59.677Z,3.35
2023-01-20T06:46:04.283Z,3.44
2023-01-20T06:51:17.073Z,3.32
2023-01-20T06:56:20.126Z,3.34
2023-01-20T07:01:31.417Z,3.26
2023-01-20T07:06:38.591Z,3.33
2023-01-20T07:11:41.526Z,3.10
2023-01-20T07:16:44.234Z,3.33
2023-01-20T07:21:46.922Z,3.31
2023-01-20T07:26:52.762Z,3.37
2023-01-20T07:31:55.561Z,3.42
2023-01-20T07:36:58.165Z,3.35
2023-01-20T07:42:00.668Z,3.38
2023-01-20T07:47:03.332Z,3.39
2023-01-20T07:52:05.885Z,3.50
2023-01-20T07:57:09.325Z,3.58
2023-01-20T08:02:11.890Z,3.42
2023-01-20T08:07:14.417Z,3.62
2023-01-20T08:12:17.090Z,3.58
2023-01-20T08:17:19.708Z,3.69
2023-01-20T08:22:22.277Z,3.57
2023-01-20T08:27:24.849Z,3.73
2023-01-20T08:32:27.447Z,3.65
2023-01-20T08:37:30.022Z,3.69
2023-01-20T08:42:32.615Z,3.79
2023-01-20T08:47:44.519Z,3.93
2023-01-20T08:52:47.494Z,3.92
2023-01-20T08:57:50.047Z,3.86
2023-01-20T09:02:52.929Z,4.03
2023-01-20T09:07:55.554Z,3.99
2023-01-20T09:12:58.122Z,4.09
2023-01-20T09:18:00.753Z,4.20
2023-01-20T09:23:03.474Z,4.22
2023-01-20T09:28:06.714Z,4.23
2023-01-20T09:33:13.995Z,4.31
2023-01-20T09:38:35.430Z,4.32
2023-01-20T09:43:57.066Z,4.29
2023-01-20T09:49:39.144Z,4.39
2023-01-20T09:54:50.496Z,4.37
2023-01-20T10:00:09.526Z,4.40
2023-01-20T10:05:16.817Z,4.15
2023-01-20T10:10:32.891Z,4.36
2023-01-20T10:15:37.779Z,4.60
2023-01-20T10:20:49.304Z,4.73
2023-01-20T10:26:00.805Z,4.77
2023-01-20T10:31:05.410Z,4.70
2023-01-20T10:36:21.443Z,4.75
2023-01-20T10:41:32.366Z,4.86
2023-01-20T10:46:47.055Z,4.96
2023-01-20T10:52:09.992Z,4.90
2023-01-20T10:57:15.432Z,4.67
2023-01-20T11:02:30.699Z,4.98
2023-01-20T11:07:34.278Z,4.65
2023-01-20T11:12:40.884Z,4.69
2023-01-20T11:17:43.572Z,4.56
2023-01-20T11:22:48.951Z,4.60
2023-01-20T11:27:52.391Z,4.49
2023-01-20T11:33:10.242Z,4.43
2023-01-20T11:38:31.161Z,4.52
2023-01-20T11:43:38.157Z,4.44
2023-01-20T11:48:40.839Z,4.43
2023-01-20T11:53:45.745Z,4.39
2023-01-20T11:58:59.855Z,4.41
2023-01-20T12:04:17.687Z,4.31
2023-01-20T12:09:25.843Z,4.21
2023-01-20T12:14:42.757Z,4.13
2023-01-20T12:19:51.325Z,4.21
2023-01-20T12:25:07.907Z,4.27
2023-01-20T12:30:43.325Z,4.19
2023-01-20T12:36:14.695Z,4.29
2023-01-20T12:41:45.451Z,4.27
2023-01-20T12:46:51.929Z,4.27
2023-01-20T12:52:31.235Z,4.29
2023-01-20T12:58:00.118Z,4.33
2023-01-20T13:03:27.542Z,4.28
2023-01-20T13:08:39.926Z,4.30
2023-01-20T13:13:57.348Z,4.22
2023-01-20T13:19:14.595Z,4.24
2023-01-20T13:24:24.410Z,4.13
2023-01-20T13:29:36.026Z,4.17
2023-01-20T13:34:40.149Z,3.80
2023-01-20T13:39:45.651Z,3.91
2023-01-20T13:45:21.030Z,3.90
2023-01-20T13:50:26.514Z,3.74
2023-01-20T13:55:40.903Z,3.72
2023-01-20T14:00:44.568Z,3.67
2023-01-20T14:05:55.617Z,3.52
2023-01-20T14:11:41.174Z,3.65
2023-01-20T14:16:44.525Z,3.63
2023-01-20T14:21:53.238Z,3.71
2023-01-20T14:27:27.168Z,3.78
2023-01-20T14:32:33.993Z,3.93
2023-01-20T14:37:38.616Z,3.93
2023-01-20T14:42:41.189Z,3.91
2023-01-20T14:47:43.783Z,3.80
2023-01-20T14:52:46.561Z,3.51
2023-01-20T14:57:49.196Z,3.36
2023-01-20T15:03:10.174Z,2.90
2023-01-20T15:08:18.993Z,3.34
2023-01-20T15:13:31.211Z,3.29
2023-01-20T15:18:34.100Z,3.18
2023-01-20T15:23:38.405Z,3.18
2023-01-20T15:28:44.932Z,2.89
2023-01-20T15:33:47.751Z,3.04
2023-01-20T15:38:50.841Z,3.10
2023-01-20T15:43:53.420Z,3.07
2023-01-20T15:48:56.168Z,2.95
2023-01-20T15:53:59.100Z,3.00
2023-01-20T15:59:02.788Z,3.08
2023-01-20T16:04:05.483Z,3.11
2023-01-20T16:09:30.513Z,3.19
2023-01-20T16:14:33.560Z,3.15
2023-01-20T16:19:36.500Z,3.13
2023-01-20T16:24:39.851Z,3.18
2023-01-20T16:29:42.511Z,3.21
2023-01-20T16:34:46.179Z,3.22
2023-01-20T16:39:48.779Z,3.30
2023-01-20T16:44:52.796Z,3.09
2023-01-20T16:49:55.345Z,3.06
2023-01-20T16:54:58.040Z,3.11
2023-01-20T17:00:00.649Z,3.06
2023-01-20T17:05:03.360Z,3.18
2023-01-20T17:10:06.570Z,3.17
2023-01-20T17:15:09.997Z,3.18
2023-01-20T17:20:12.764Z,3.14
2023-01-20T17:25:17.933Z,3.01
2023-01-20T17:30:20.739Z,3.11
2023-01-20T17:35:23.367Z,3.03
2023-01-20T17:40:25.999Z,2.86
2023-01-20T17:45:30.726Z,3.01
2023-01-20T17:50:39.794Z,3.06
2023-01-20T17:55:43.235Z,3.16
2023-01-20T18:00:45.872Z,3.13
2023-01-20T18:05:48.449Z,3.08
2023-01-20T18:10:50.987Z,3.07
2023-01-20T18:15:53.658Z,3.05
2023-01-20T18:20:56.229Z,3.04
2023-01-20T18:25:58.859Z,3.17
2023-01-20T18:31:08.506Z,3.12
2023-01-20T18:36:14.787Z,3.19
2023-01-20T18:41:17.693Z,3.22
2023-01-20T18:46:20.554Z,3.09
2023-01-20T18:51:25.962Z,3.13
2023-01-20T18:56:29.974Z,3.11
2023-01-20T19:01:36.213Z,2.83
2023-01-20T19:06:42.034Z,3.03
2023-01-20T19:11:44.638Z,3.01
2023-01-20T19:16:49.515Z,3.22
2023-01-20T19:21:52.693Z,3.13
2023-01-20T19:26:55.368Z,3.22
2023-01-20T19:31:58.011Z,3.22
2023-01-20T19:37:00.760Z,3.11
2023-01-20T19:42:03.397Z,3.24
2023-01-20T19:47:05.945Z,3.09
2023-01-20T19:52:08.496Z,3.16
2023-01-20T19:57:11.083Z,2.83
2023-01-20T20:02:13.646Z,3.04
2023-01-20T20:07:16.220Z,2.91
2023-01-20T20:12:18.799Z,2.75
2023-01-20T20:17:21.448Z,2.52
2023-01-20T20:22:24.158Z,2.30
2023-01-20T20:27:34.386Z,2.43
2023-01-20T20:32:37.088Z,2.27
2023-01-20T20:37:39.871Z,2.31
2023-01-20T20:42:43.139Z,2.45
2023-01-20T20:47:45.711Z,2.33
2023-01-20T20:52:48.309Z,2.30
2023-01-20T20:57:51.171Z,2.13
2023-01-20T21:02:55.389Z,2.05
2023-01-20T21:07:58.015Z,2.05
2023-01-20T21:13:00.569Z,2.10
2023-01-20T21:18:04.139Z,2.14
2023-01-20T21:23:06.751Z,2.06
2023-01-20T21:28:10.034Z,2.06
2023-01-20T21:33:17.695Z,1.90
2023-01-20T21:38:20.354Z,1.86
2023-01-20T21:43:41.325Z,1.62
2023-01-20T21:49:02.501Z,1.65
2023-01-20T21:54:05.133Z,1.49
2023-01-20T21:59:07.962Z,1.72
2023-01-20T22:04:10.818Z,1.71
2023-01-20T22:09:13.467Z,1.74
2023-01-20T22:14:16.089Z,1.81
2023-01-20T22:19:18.649Z,1.85
2023-01-20T22:24:21.562Z,1.77
2023-01-20T22:29:24.688Z,1.72
2023-01-20T22:34:29.233Z,1.80
2023-01-20T22:39:31.791Z,1.84
2023-01-20T22:44:34.301Z,1.81
2023-01-20T22:49:36.957Z,1.78
2023-01-20T22:54:39.474Z,1.82
2023-01-20T22:59:42.174Z,1.86
2023-01-20T23:04:44.781Z,1.77
2023-01-20T23:09:47.345Z,1.67
2023-01-20T23:14:59.069Z,1.43
2023-01-20T23:20:01.634Z,1.63
2023-01-20T23:25:08.564Z,1.38
2023-01-20T23:30:11.562Z,1.34
2023-01-20T23:35:14.291Z,1.41
2023-01-20T23:40:18.577Z,1.33
2023-01-20T23:45:21.391Z,1.34
2023-01-20T23:50:23.957Z,1.25
2023-01-20T23:55:26.528Z,1.27
